createdAt,value
2023-10-02T00:00:32.422Z,15.73
2023-10-02T00:01:32.464Z,15.73
2023-10-02T00:02:32.473Z,15.69
2023-10-02T00:03:32.452Z,15.68
2023-10-02T00:04:32.393Z,15.68
2023-10-02T00:05:32.344Z,15.63
2023-10-02T00:06:32.336Z,15.63
2023-10-02T00:07:32.332Z,15.60
2023-10-02T00:08:32.339Z,15.58
2023-10-02T00:09:32.301Z,15.56
2023-10-02T00:10:32.347Z,15.56
2023-10-02T00:11:32.301Z,15.51
2023-10-02T00:12:32.294Z,15.51
2023-10-02T00:13:32.336Z,15.51
2023-10-02T00:14:32.258Z,15.50
2023-10-02T00:15:32.273Z,15.50
2023-10-02T00:16:32.250Z,15.51
2023-10-02T00:17:32.298Z,15.54
2023-10-02T00:18:32.220Z,15.60
2023-10-02T00:19:32.280Z,15.63
2023-10-02T00:20:32.194Z,15.65
2023-10-02T00:21:32.191Z,15.69
2023-10-02T00:22:32.408Z,15.73
2023-10-02T00:23:32.165Z,15.76
2023-10-02T00:24:32.158Z,15.80
2023-10-02T00:25:32.156Z,15.83
2023-10-02T00:26:32.106Z,15.85
2023-10-02T00:27:32.132Z,15.91
2023-10-02T00:28:32.213Z,15.95
2023-10-02T00:29:32.098Z,15.96
2023-10-02T00:30:32.105Z,16.02
2023-10-02T00:31:32.135Z,16.05
2023-10-02T00:32:32.123Z,16.09
2023-10-02T00:33:32.066Z,16.14
2023-10-02T00:34:32.067Z,16.17
2023-10-02T00:35:32.050Z,16.24
2023-10-02T00:36:32.035Z,16.29
2023-10-02T00:37:32.048Z,16.34
2023-10-02T00:38:32.004Z,16.36
2023-10-02T00:39:32.030Z,16.43
2023-10-02T00:40:32.446Z,16.46
2023-10-02T00:41:32.022Z,16.49
2023-10-02T00:42:31.963Z,16.52
2023-10-02T00:43:31.983Z,16.57
2023-10-02T00:44:31.943Z,16.61
2023-10-02T00:45:31.942Z,16.64
2023-10-02T00:46:31.968Z,16.65
2023-10-02T00:47:32.079Z,16.67
2023-10-02T00:48:31.977Z,16.69
2023-10-02T00:49:31.932Z,16.72
2023-10-02T00:50:31.906Z,16.72
2023-10-02T00:51:31.934Z,16.73
2023-10-02T00:52:31.887Z,16.73
2023-10-02T00:53:31.851Z,16.74
2023-10-02T00:54:31.847Z,16.76
2023-10-02T00:55:32.027Z,16.76
2023-10-02T00:56:31.816Z,16.77
2023-10-02T00:57:31.802Z,16.77
2023-10-02T00:58:31.808Z,16.79
2023-10-02T00:59:31.790Z,16.77
2023-10-02T01:00:31.775Z,16.79
2023-10-02T01:01:31.854Z,16.80
2023-10-02T01:02:31.814Z,16.79
2023-10-02T01:03:31.789Z,16.79
2023-10-02T01:04:31.781Z,16.82
2023-10-02T01:05:31.718Z,16.80
2023-10-02T01:06:31.710Z,16.80
2023-10-02T01:07:31.702Z,16.79
2023-10-02T01:08:31.708Z,16.79
2023-10-02T01:09:31.689Z,16.79
2023-10-02T01:10:31.777Z,16.82
2023-10-02T01:11:31.632Z,16.80
2023-10-02T01:12:31.636Z,16.80
2023-10-02T01:13:31.690Z,16.82
2023-10-02T01:14:31.633Z,16.82
2023-10-02T01:15:48.680Z,16.83
2023-10-02T01:16:31.634Z,16.87
2023-10-02T01:17:31.732Z,16.88
2023-10-02T01:18:31.592Z,16.90
2023-10-02T01:19:31.620Z,16.92
2023-10-02T01:20:31.554Z,16.92
2023-10-02T01:21:31.520Z,16.97
2023-10-02T01:22:31.595Z,16.97
2023-10-02T01:23:31.505Z,16.99
2023-10-02T01:24:31.489Z,16.99
2023-10-02T01:25:31.564Z,17.01
2023-10-02T01:26:31.463Z,17.02
2023-10-02T01:27:31.458Z,17.04
2023-10-02T01:28:31.494Z,17.06
2023-10-02T01:29:31.467Z,17.07
2023-10-02T01:30:31.443Z,17.09
2023-10-02T01:31:31.456Z,17.09
2023-10-02T01:32:31.457Z,17.09
2023-10-02T01:33:31.409Z,17.12
2023-10-02T01:34:31.414Z,17.12
2023-10-02T01:35:31.396Z,17.12
2023-10-02T01:36:31.359Z,17.12
2023-10-02T01:37:31.395Z,17.10
2023-10-02T01:38:31.472Z,17.12
2023-10-02T01:39:31.348Z,17.10
2023-10-02T01:40:31.366Z,17.10
2023-10-02T01:41:31.373Z,17.12
2023-10-02T01:42:31.349Z,17.12
2023-10-02T01:43:31.314Z,17.12
2023-10-02T01:44:34.348Z,17.12
2023-10-02T01:45:31.286Z,17.13
2023-10-02T01:46:31.318Z,17.13
2023-10-02T01:47:31.310Z,17.14
2023-10-02T01:48:31.263Z,17.16
2023-10-02T01:49:31.253Z,17.16
2023-10-02T01:50:31.217Z,17.19
2023-10-02T01:51:31.214Z,17.19
2023-10-02T01:52:45.854Z,17.20
2023-10-02T01:53:31.345Z,17.22
2023-10-02T01:54:31.174Z,17.22
2023-10-02T01:55:31.597Z,17.22
2023-10-02T01:56:31.207Z,17.24
2023-10-02T01:57:31.153Z,17.27
2023-10-02T01:58:31.249Z,17.25
2023-10-02T01:59:31.151Z,17.27
2023-10-02T02:00:31.172Z,17.27
2023-10-02T02:01:31.304Z,17.27
2023-10-02T02:02:31.261Z,17.27
2023-10-02T02:03:31.142Z,17.27
2023-10-02T02:04:31.124Z,17.25
2023-10-02T02:05:31.082Z,17.25
2023-10-02T02:06:31.053Z,17.25
2023-10-02T02:07:31.032Z,17.25
2023-10-02T02:08:31.026Z,17.22
2023-10-02T02:09:31.066Z,17.27
2023-10-02T02:10:30.996Z,17.24
2023-10-02T02:11:31.133Z,17.24
2023-10-02T02:12:30.994Z,17.22
2023-10-02T02:13:31.015Z,17.20
2023-10-02T02:14:30.959Z,17.20
2023-10-02T02:15:30.973Z,17.19
2023-10-02T02:16:30.966Z,17.20
2023-10-02T02:17:31.020Z,17.19
2023-10-02T02:18:30.941Z,17.17
2023-10-02T02:19:30.943Z,17.14
2023-10-02T02:20:30.898Z,17.14
2023-10-02T02:21:30.888Z,17.09
2023-10-02T02:22:30.875Z,17.04
2023-10-02T02:23:30.922Z,16.98
2023-10-02T02:24:30.878Z,16.95
2023-10-02T02:25:30.897Z,16.92
2023-10-02T02:26:30.863Z,16.90
2023-10-02T02:27:30.862Z,16.88
2023-10-02T02:28:30.810Z,16.84
2023-10-02T02:29:30.923Z,16.83
2023-10-02T02:30:30.819Z,16.83
2023-10-02T02:31:30.896Z,16.83
2023-10-02T02:32:30.846Z,16.82
2023-10-02T02:33:30.759Z,16.80
2023-10-02T02:34:30.772Z,16.82
2023-10-02T02:35:30.772Z,16.83
2023-10-02T02:36:30.749Z,16.83
2023-10-02T02:37:30.733Z,16.87
2023-10-02T02:38:30.719Z,16.88
2023-10-02T02:39:30.707Z,16.90
2023-10-02T02:40:30.704Z,16.95
2023-10-02T02:41:30.706Z,16.95
2023-10-02T02:42:30.658Z,16.95
2023-10-02T02:43:30.669Z,16.97
2023-10-02T02:44:30.679Z,16.98
2023-10-02T02:45:31.964Z,16.98
2023-10-02T02:46:30.685Z,16.97
2023-10-02T02:47:30.650Z,16.97
2023-10-02T02:48:30.600Z,16.95
2023-10-02T02:49:30.610Z,16.95
2023-10-02T02:50:30.579Z,16.97
2023-10-02T02:51:30.598Z,16.95
2023-10-02T02:52:30.574Z,16.95
2023-10-02T02:53:30.570Z,16.95
2023-10-02T02:54:30.564Z,16.92
2023-10-02T02:55:30.529Z,16.91
2023-10-02T02:56:30.542Z,16.90
2023-10-02T02:57:30.593Z,16.88
2023-10-02T02:58:30.498Z,16.84
2023-10-02T02:59:30.492Z,16.84
2023-10-02T03:00:30.528Z,16.83
2023-10-02T03:01:30.560Z,16.83
2023-10-02T03:02:30.680Z,16.84
2023-10-02T03:03:30.564Z,16.82
2023-10-02T03:04:30.439Z,16.83
2023-10-02T03:05:30.456Z,16.82
2023-10-02T03:06:30.429Z,16.80
2023-10-02T03:07:30.415Z,16.83
2023-10-02T03:08:30.406Z,16.80
2023-10-02T03:09:30.399Z,16.79
2023-10-02T03:10:30.385Z,16.77
2023-10-02T03:11:30.787Z,16.74
2023-10-02T03:12:30.406Z,16.74
2023-10-02T03:13:30.355Z,16.72
2023-10-02T03:14:30.335Z,16.70
2023-10-02T03:15:30.331Z,16.67
2023-10-02T03:16:30.974Z,16.67
2023-10-02T03:17:30.353Z,16.67
2023-10-02T03:18:30.308Z,16.67
2023-10-02T03:19:30.283Z,16.67
2023-10-02T03:20:30.272Z,16.67
2023-10-02T03:21:30.288Z,16.65
2023-10-02T03:22:30.260Z,16.65
2023-10-02T03:23:30.228Z,16.65
2023-10-02T03:24:30.246Z,16.65
2023-10-02T03:25:30.227Z,16.65
2023-10-02T03:26:30.226Z,16.65
2023-10-02T03:27:30.191Z,16.65
2023-10-02T03:28:30.198Z,16.64
2023-10-02T03:29:30.170Z,16.65
2023-10-02T03:30:30.164Z,16.65
2023-10-02T03:31:30.185Z,16.67
2023-10-02T03:32:30.264Z,16.67
2023-10-02T03:33:30.138Z,16.69
2023-10-02T03:34:30.939Z,16.70
2023-10-02T03:35:30.108Z,16.69
2023-10-02T03:36:30.103Z,16.72
2023-10-02T03:37:30.065Z,16.70
2023-10-02T03:38:30.057Z,16.70
2023-10-02T03:39:30.093Z,16.70
2023-10-02T03:40:30.044Z,16.69
2023-10-02T03:41:30.042Z,16.70
2023-10-02T03:42:30.012Z,16.69
2023-10-02T03:43:30.000Z,16.67
2023-10-02T03:44:30.028Z,16.67
2023-10-02T03:45:30.035Z,16.67
2023-10-02T03:46:29.992Z,16.67
2023-10-02T03:47:29.977Z,16.67
2023-10-02T03:48:29.959Z,16.67
2023-10-02T03:49:29.953Z,16.64
2023-10-02T03:50:29.949Z,16.62
2023-10-02T03:51:29.914Z,16.59
2023-10-02T03:52:29.924Z,16.58
2023-10-02T03:53:30.096Z,16.55
2023-10-02T03:54:29.892Z,16.51
2023-10-02T03:55:29.922Z,16.49
2023-10-02T03:56:29.897Z,16.46
2023-10-02T03:57:29.865Z,16.39
2023-10-02T03:58:29.839Z,16.33
2023-10-02T03:59:29.821Z,16.33
2023-10-02T04:00:29.851Z,16.25
2023-10-02T04:01:29.851Z,16.18
2023-10-02T04:02:29.825Z,16.14
2023-10-02T04:03:29.796Z,16.09
2023-10-02T04:04:29.776Z,16.05
2023-10-02T04:05:29.785Z,15.99
2023-10-02T04:06:29.774Z,15.95
2023-10-02T04:07:29.789Z,15.90
2023-10-02T04:08:29.738Z,15.85
2023-10-02T04:09:29.734Z,15.83
2023-10-02T04:10:29.714Z,15.77
2023-10-02T04:11:29.716Z,15.72
2023-10-02T04:12:29.688Z,15.69
2023-10-02T04:13:29.723Z,15.63
2023-10-02T04:14:29.680Z,15.58
2023-10-02T04:15:29.671Z,15.56
2023-10-02T04:16:29.658Z,15.52
2023-10-02T04:17:29.662Z,15.47
2023-10-02T04:18:29.645Z,15.44
2023-10-02T04:19:29.652Z,15.40
2023-10-02T04:20:29.610Z,15.35
2023-10-02T04:21:29.602Z,15.32
2023-10-02T04:22:29.627Z,15.30
2023-10-02T04:23:29.584Z,15.23
2023-10-02T04:24:29.583Z,15.22
2023-10-02T04:25:29.566Z,15.20
2023-10-02T04:26:29.545Z,15.17
2023-10-02T04:27:29.590Z,15.15
2023-10-02T04:28:29.562Z,15.11
2023-10-02T04:29:29.662Z,15.10
2023-10-02T04:30:29.507Z,15.07
2023-10-02T04:31:29.628Z,15.03
2023-10-02T04:32:29.567Z,14.99
2023-10-02T04:33:29.484Z,14.95
2023-10-02T04:34:29.400Z,14.92
2023-10-02T04:35:29.465Z,14.89
2023-10-02T04:36:29.393Z,14.89
2023-10-02T04:37:29.407Z,14.85
2023-10-02T04:38:29.405Z,14.82
2023-10-02T04:39:29.365Z,14.82
2023-10-02T04:40:29.372Z,14.79
2023-10-02T04:41:29.329Z,14.82
2023-10-02T04:42:29.343Z,14.79
2023-10-02T04:43:29.374Z,14.78
2023-10-02T04:44:29.338Z,14.77
2023-10-02T04:45:29.314Z,14.77
2023-10-02T04:46:29.286Z,14.74
2023-10-02T04:47:29.326Z,14.71
2023-10-02T04:48:29.270Z,14.70
2023-10-02T04:49:29.266Z,14.67
2023-10-02T04:50:29.264Z,14.67
2023-10-02T04:51:29.229Z,14.64
2023-10-02T04:52:29.224Z,14.64
2023-10-02T04:53:29.207Z,14.64
2023-10-02T04:54:29.185Z,14.66
2023-10-02T04:55:29.453Z,14.66
2023-10-02T04:56:29.172Z,14.66
2023-10-02T04:57:29.168Z,14.66
2023-10-02T04:58:29.148Z,14.66
2023-10-02T04:59:29.147Z,14.64
2023-10-02T05:00:29.160Z,14.61
2023-10-02T05:01:29.147Z,14.58
2023-10-02T05:02:29.147Z,14.55
2023-10-02T05:03:29.140Z,14.56
2023-10-02T05:04:29.093Z,14.55
2023-10-02T05:05:29.079Z,14.55
2023-10-02T05:06:29.105Z,14.53
2023-10-02T05:07:29.051Z,14.49
2023-10-02T05:08:29.078Z,14.49
2023-10-02T05:09:29.035Z,14.46
2023-10-02T05:10:29.020Z,14.46
2023-10-02T05:11:29.043Z,14.45
2023-10-02T05:12:29.041Z,14.41
2023-10-02T05:13:28.967Z,14.41
2023-10-02T05:14:29.002Z,14.38
2023-10-02T05:15:28.963Z,14.37
2023-10-02T05:16:29.029Z,14.34
2023-10-02T05:17:29.132Z,14.34
2023-10-02T05:18:29.009Z,14.31
2023-10-02T05:19:28.904Z,14.31
2023-10-02T05:20:28.900Z,14.30
2023-10-02T05:21:28.899Z,14.31
2023-10-02T05:22:28.901Z,14.30
2023-10-02T05:23:28.884Z,14.31
2023-10-02T05:24:28.872Z,14.30
2023-10-02T05:25:28.839Z,14.33
2023-10-02T05:26:28.830Z,14.33
2023-10-02T05:27:28.888Z,14.33
2023-10-02T05:28:28.809Z,14.34
2023-10-02T05:29:28.843Z,14.36
2023-10-02T05:30:28.790Z,14.40
2023-10-02T05:31:28.770Z,14.40
2023-10-02T05:32:28.842Z,14.44
2023-10-02T05:33:28.762Z,14.45
2023-10-02T05:34:28.740Z,14.46
2023-10-02T05:35:29.853Z,14.49
2023-10-02T05:36:28.725Z,14.49
2023-10-02T05:37:28.755Z,14.52
2023-10-02T05:38:28.694Z,14.56
2023-10-02T05:39:28.695Z,14.58
2023-10-02T05:40:28.679Z,14.61
2023-10-02T05:41:28.688Z,14.64
2023-10-02T05:42:28.681Z,14.67
2023-10-02T05:43:28.681Z,14.70
2023-10-02T05:44:28.654Z,14.71
2023-10-02T05:45:28.637Z,14.78
2023-10-02T05:46:28.649Z,14.83
2023-10-02T05:47:28.735Z,14.89
2023-10-02T05:48:28.700Z,14.93
2023-10-02T05:49:28.570Z,14.99
2023-10-02T05:50:28.592Z,15.01
2023-10-02T05:51:28.573Z,15.07
2023-10-02T05:52:28.619Z,15.11
2023-10-02T05:53:28.532Z,15.12
2023-10-02T05:54:28.528Z,15.19
2023-10-02T05:55:28.513Z,15.23
2023-10-02T05:56:28.526Z,15.29
2023-10-02T05:57:28.520Z,15.32
2023-10-02T05:58:28.589Z,15.38
2023-10-02T05:59:28.511Z,15.41
2023-10-02T06:00:28.494Z,15.44
2023-10-02T06:01:28.665Z,15.47
2023-10-02T06:02:28.495Z,15.52
2023-10-02T06:03:28.517Z,15.58
2023-10-02T06:04:28.442Z,15.62
2023-10-02T06:05:28.425Z,15.65
2023-10-02T06:06:28.422Z,15.70
2023-10-02T06:07:28.386Z,15.77
2023-10-02T06:08:28.394Z,15.83
2023-10-02T06:09:28.397Z,15.88
2023-10-02T06:10:28.464Z,15.95
2023-10-02T06:11:28.522Z,15.99
2023-10-02T06:12:28.371Z,16.03
2023-10-02T06:13:28.339Z,16.10
2023-10-02T06:14:28.394Z,16.16
2023-10-02T06:15:28.347Z,16.21
2023-10-02T06:16:28.339Z,16.25
2023-10-02T06:17:28.324Z,16.26
2023-10-02T06:18:28.757Z,16.33
2023-10-02T06:19:28.331Z,16.37
2023-10-02T06:20:28.296Z,16.42
2023-10-02T06:21:28.249Z,16.44
2023-10-02T06:22:28.244Z,16.49
2023-10-02T06:23:28.234Z,16.54
2023-10-02T06:24:28.203Z,16.58
2023-10-02T06:25:28.226Z,16.62
2023-10-02T06:26:28.234Z,16.70
2023-10-02T06:27:28.173Z,16.74
2023-10-02T06:28:28.184Z,16.77
2023-10-02T06:29:28.184Z,16.82
2023-10-02T06:30:28.196Z,16.87
2023-10-02T06:31:28.171Z,16.90
2023-10-02T06:32:28.169Z,16.91
2023-10-02T06:33:28.123Z,16.95
2023-10-02T06:34:28.092Z,16.98
2023-10-02T06:35:28.167Z,16.98
2023-10-02T06:36:28.071Z,17.02
2023-10-02T06:37:28.112Z,17.06
2023-10-02T06:38:28.096Z,17.10
2023-10-02T06:39:28.071Z,17.13
2023-10-02T06:40:28.045Z,17.14
2023-10-02T06:41:28.050Z,17.16
2023-10-02T06:42:28.008Z,17.17
2023-10-02T06:43:28.043Z,17.22
2023-10-02T06:44:27.981Z,17.24
2023-10-02T06:45:27.987Z,17.22
2023-10-02T06:46:27.998Z,17.22
2023-10-02T06:47:28.067Z,17.27
2023-10-02T06:48:27.974Z,17.31
2023-10-02T06:49:27.946Z,17.32
2023-10-02T06:50:27.978Z,17.35
2023-10-02T06:51:27.911Z,17.38
2023-10-02T06:52:27.928Z,17.41
2023-10-02T06:53:27.911Z,17.46
2023-10-02T06:54:27.880Z,17.46
2023-10-02T06:55:27.890Z,17.49
2023-10-02T06:56:27.860Z,17.50
2023-10-02T06:57:27.864Z,17.52
2023-10-02T06:58:27.887Z,17.56
2023-10-02T06:59:27.882Z,17.59
2023-10-02T07:00:27.817Z,17.63
2023-10-02T07:01:27.838Z,17.68
2023-10-02T07:02:27.936Z,17.71
2023-10-02T07:03:27.867Z,17.79
2023-10-02T07:04:27.839Z,17.81
2023-10-02T07:05:27.774Z,17.86
2023-10-02T07:06:27.771Z,17.88
2023-10-02T07:07:27.750Z,17.90
2023-10-02T07:08:27.783Z,17.93
2023-10-02T07:09:27.734Z,17.97
2023-10-02T07:10:27.725Z,17.99
2023-10-02T07:11:27.730Z,18.05
2023-10-02T07:12:27.688Z,18.09
2023-10-02T07:13:27.695Z,18.15
2023-10-02T07:14:27.735Z,18.23
2023-10-02T07:15:27.678Z,18.28
2023-10-02T07:16:27.774Z,18.34
2023-10-02T07:17:27.666Z,18.39
2023-10-02T07:18:27.862Z,18.41
2023-10-02T07:19:27.609Z,18.45
2023-10-02T07:20:27.673Z,18.51
2023-10-02T07:21:27.624Z,18.56
2023-10-02T07:22:27.596Z,18.61
2023-10-02T07:23:27.760Z,18.66
2023-10-02T07:24:27.575Z,18.71
2023-10-02T07:25:27.601Z,18.79
2023-10-02T07:26:27.582Z,18.81
2023-10-02T07:27:27.550Z,18.85
2023-10-02T07:28:27.523Z,18.89
2023-10-02T07:29:27.586Z,18.93
2023-10-02T07:30:27.491Z,18.97
2023-10-02T07:31:27.565Z,19.05
2023-10-02T07:32:27.601Z,19.09
2023-10-02T07:33:27.576Z,19.09
2023-10-02T07:34:27.509Z,19.16
2023-10-02T07:35:27.432Z,19.19
2023-10-02T07:36:27.474Z,19.23
2023-10-02T07:37:27.409Z,19.31
2023-10-02T07:38:27.423Z,19.34
2023-10-02T07:39:27.408Z,19.38
2023-10-02T07:40:27.380Z,19.44
2023-10-02T07:41:27.652Z,19.47
2023-10-02T07:42:27.359Z,19.53
2023-10-02T07:43:27.351Z,19.59
2023-10-02T07:44:27.356Z,19.64
2023-10-02T07:45:27.469Z,19.70
2023-10-02T07:46:27.427Z,19.79
2023-10-02T07:47:27.381Z,19.84
2023-10-02T07:48:27.312Z,19.89
2023-10-02T07:49:27.305Z,19.90
2023-10-02T07:50:27.298Z,19.99
2023-10-02T07:51:29.002Z,20.11
2023-10-02T07:52:27.286Z,20.19
2023-10-02T07:53:27.262Z,20.30
2023-10-02T07:54:27.245Z,20.41
2023-10-02T07:55:27.245Z,20.46
2023-10-02T07:56:27.238Z,20.55
2023-10-02T07:57:27.242Z,20.61
2023-10-02T07:58:27.223Z,20.67
2023-10-02T07:59:27.216Z,20.75
2023-10-02T08:00:33.743Z,20.88
2023-10-02T08:01:27.203Z,20.97
2023-10-02T08:02:27.212Z,21.01
2023-10-02T08:03:27.185Z,21.13
2023-10-02T08:04:27.142Z,21.19
2023-10-02T08:05:27.277Z,21.32
2023-10-02T08:06:27.152Z,21.38
2023-10-02T08:07:42.064Z,21.45
2023-10-02T08:08:27.184Z,21.50
2023-10-02T08:09:27.082Z,21.53
2023-10-02T08:10:27.067Z,21.56
2023-10-02T08:11:27.071Z,21.59
2023-10-02T08:12:27.048Z,21.53
2023-10-02T08:13:27.060Z,21.48
2023-10-02T08:14:27.021Z,21.47
2023-10-02T08:15:27.204Z,21.50
2023-10-02T08:16:27.024Z,21.53
2023-10-02T08:17:27.067Z,21.55
2023-10-02T08:18:26.988Z,21.58
2023-10-02T08:19:26.987Z,21.60
2023-10-02T08:20:27.021Z,21.60
2023-10-02T08:21:26.950Z,21.65
2023-10-02T08:22:26.926Z,21.60
2023-10-02T08:23:26.940Z,21.59
2023-10-02T08:24:26.949Z,21.62
2023-10-02T08:25:27.011Z,21.66
2023-10-02T08:26:29.933Z,21.71
2023-10-02T08:27:26.880Z,21.73
2023-10-02T08:28:26.862Z,21.73
2023-10-02T08:29:26.904Z,21.75
2023-10-02T08:30:26.869Z,21.80
2023-10-02T08:31:26.868Z,21.88
2023-10-02T08:32:27.120Z,21.96
2023-10-02T08:33:37.748Z,21.97
2023-10-02T08:34:26.839Z,21.93
2023-10-02T08:35:27.105Z,21.90
2023-10-02T08:36:26.775Z,21.94
2023-10-02T08:37:26.850Z,21.98
2023-10-02T08:38:26.784Z,22.01
2023-10-02T08:39:26.760Z,22.06
2023-10-02T08:40:26.777Z,22.04
2023-10-02T08:41:26.756Z,22.13
2023-10-02T08:42:26.711Z,22.18
2023-10-02T08:43:26.719Z,22.16
2023-10-02T08:44:26.713Z,22.16
2023-10-02T08:45:26.694Z,22.19
2023-10-02T08:46:26.739Z,22.22
2023-10-02T08:47:26.868Z,22.27
2023-10-02T08:48:26.833Z,22.30
2023-10-02T08:49:26.635Z,22.23
2023-10-02T08:50:26.661Z,22.23
2023-10-02T08:51:26.632Z,22.25
2023-10-02T08:52:26.631Z,22.28
2023-10-02T08:53:26.654Z,22.27
2023-10-02T08:54:26.581Z,22.30
2023-10-02T08:55:26.587Z,22.34
2023-10-02T08:56:26.669Z,22.40
2023-10-02T08:57:28.358Z,22.44
2023-10-02T08:58:26.558Z,22.46
2023-10-02T08:59:26.589Z,22.51
2023-10-02T09:00:26.559Z,22.53
2023-10-02T09:01:26.550Z,22.58
2023-10-02T09:02:26.586Z,22.55
2023-10-02T09:03:26.533Z,22.53
2023-10-02T09:04:26.554Z,22.55
2023-10-02T09:05:26.532Z,22.62
2023-10-02T09:06:26.535Z,22.71
2023-10-02T09:07:26.532Z,22.77
2023-10-02T09:08:26.454Z,22.83
2023-10-02T09:09:26.414Z,22.85
2023-10-02T09:10:27.361Z,22.81
2023-10-02T09:11:26.422Z,22.88
2023-10-02T09:12:26.430Z,22.88
2023-10-02T09:13:26.372Z,22.92
2023-10-02T09:14:26.443Z,22.91
2023-10-02T09:15:31.889Z,22.86
2023-10-02T09:16:26.390Z,22.85
2023-10-02T09:17:26.485Z,22.83
2023-10-02T09:18:26.351Z,22.85
2023-10-02T09:19:26.304Z,22.81
2023-10-02T09:20:26.308Z,22.85
2023-10-02T09:21:26.300Z,22.81
2023-10-02T09:22:26.277Z,22.78
2023-10-02T09:23:26.367Z,22.78
2023-10-02T09:24:26.254Z,22.86
2023-10-02T09:25:26.261Z,22.86
2023-10-02T09:26:26.772Z,22.91
2023-10-02T09:27:26.234Z,22.95
2023-10-02T09:28:26.209Z,22.96
2023-10-02T09:29:26.247Z,22.96
2023-10-02T09:30:26.208Z,22.96
2023-10-02T09:31:26.271Z,22.99
2023-10-02T09:32:26.274Z,23.01
2023-10-02T09:33:49.592Z,23.04
2023-10-02T09:35:03.628Z,23.08
2023-10-02T09:35:44.726Z,23.13
2023-10-02T09:37:13.906Z,23.22
2023-10-02T09:38:05.437Z,23.22
2023-10-02T09:38:26.205Z,23.25
2023-10-02T09:39:26.240Z,23.26
2023-10-02T09:40:26.264Z,23.29
2023-10-02T09:41:26.130Z,23.31
2023-10-02T09:42:26.088Z,23.21
2023-10-02T09:43:26.070Z,23.22
2023-10-02T09:44:26.083Z,23.28
2023-10-02T09:45:26.046Z,23.28
2023-10-02T09:46:26.015Z,23.37
2023-10-02T09:47:26.167Z,23.44
2023-10-02T09:48:26.040Z,23.48
2023-10-02T09:49:26.000Z,23.54
2023-10-02T09:50:26.016Z,23.59
2023-10-02T09:51:25.992Z,23.64
2023-10-02T09:52:25.954Z,23.71
2023-10-02T09:53:26.069Z,23.76
2023-10-02T09:54:25.930Z,23.82
2023-10-02T09:55:25.961Z,23.88
2023-10-02T09:56:25.954Z,23.94
2023-10-02T09:57:25.959Z,23.97
2023-10-02T09:58:25.885Z,24.00
2023-10-02T09:59:25.935Z,24.06
2023-10-02T10:00:25.880Z,24.15
2023-10-02T10:01:25.916Z,24.25
2023-10-02T10:02:26.030Z,24.40
2023-10-02T10:03:26.019Z,24.48
2023-10-02T10:04:25.823Z,24.52
2023-10-02T10:05:25.970Z,24.44
2023-10-02T10:06:25.820Z,24.44
2023-10-02T10:07:25.829Z,24.45
2023-10-02T10:08:25.831Z,24.38
2023-10-02T10:09:25.774Z,24.38
2023-10-02T10:10:25.774Z,24.40
2023-10-02T10:11:25.794Z,24.41
2023-10-02T10:12:25.739Z,24.43
2023-10-02T10:13:25.798Z,24.44
2023-10-02T10:14:25.761Z,24.52
2023-10-02T10:15:26.055Z,24.58
2023-10-02T10:16:25.729Z,24.63
2023-10-02T10:17:25.734Z,24.70
2023-10-02T10:18:25.682Z,24.78
2023-10-02T10:19:25.670Z,24.86
2023-10-02T10:20:25.692Z,24.93
2023-10-02T10:21:25.656Z,24.96
2023-10-02T10:22:25.689Z,24.97
2023-10-02T10:23:25.650Z,24.96
2023-10-02T10:24:25.646Z,25.00
2023-10-02T10:25:25.634Z,24.97
2023-10-02T10:26:25.676Z,25.00
2023-10-02T10:27:25.599Z,25.09
2023-10-02T10:28:25.571Z,25.16
2023-10-02T10:29:25.592Z,25.22
2023-10-02T10:30:25.599Z,25.23
2023-10-02T10:31:25.617Z,25.21
2023-10-02T10:32:26.157Z,25.21
2023-10-02T10:33:25.586Z,25.16
2023-10-02T10:34:25.504Z,25.09
2023-10-02T10:35:25.624Z,24.97
2023-10-02T10:36:25.514Z,24.94
2023-10-02T10:37:25.519Z,24.91
2023-10-02T10:38:25.586Z,24.96
2023-10-02T10:39:27.168Z,25.04
2023-10-02T10:40:25.442Z,25.03
2023-10-02T10:41:25.474Z,24.97
2023-10-02T10:42:25.484Z,24.90
2023-10-02T10:43:25.414Z,24.84
2023-10-02T10:44:25.431Z,24.75
2023-10-02T10:45:25.448Z,24.68
2023-10-02T10:46:25.382Z,24.56
2023-10-02T10:47:25.474Z,24.58
2023-10-02T10:48:25.411Z,24.62
2023-10-02T10:49:25.555Z,24.65
2023-10-02T10:50:25.356Z,24.68
2023-10-02T10:51:25.347Z,24.68
2023-10-02T10:52:25.336Z,24.74
2023-10-02T10:53:25.376Z,24.81
2023-10-02T10:54:36.538Z,24.89
2023-10-02T10:55:25.302Z,24.97
2023-10-02T10:56:25.345Z,25.06
2023-10-02T10:57:25.279Z,25.14
2023-10-02T10:58:25.282Z,25.18
2023-10-02T10:59:25.249Z,25.16
2023-10-02T11:00:26.282Z,25.18
2023-10-02T11:01:25.265Z,25.18
2023-10-02T11:02:25.308Z,25.15
2023-10-02T11:03:25.287Z,25.14
2023-10-02T11:04:25.185Z,25.18
2023-10-02T11:05:25.300Z,25.18
2023-10-02T11:06:25.169Z,25.21
2023-10-02T11:07:25.180Z,25.27
2023-10-02T11:08:26.084Z,25.28
2023-10-02T11:09:25.164Z,25.28
2023-10-02T11:10:25.125Z,25.23
2023-10-02T11:11:25.175Z,25.23
2023-10-02T11:12:25.139Z,25.30
2023-10-02T11:13:25.108Z,25.33
2023-10-02T11:14:25.123Z,25.38
2023-10-02T11:15:25.081Z,25.41
2023-10-02T11:16:25.086Z,25.46
2023-10-02T11:17:25.111Z,25.53
2023-10-02T11:18:25.260Z,25.58
2023-10-02T11:19:25.043Z,25.64
2023-10-02T11:20:25.044Z,25.70
2023-10-02T11:21:25.003Z,25.73
2023-10-02T11:22:25.043Z,25.74
2023-10-02T11:23:25.066Z,25.75
2023-10-02T11:24:25.000Z,25.85
2023-10-02T11:25:24.976Z,25.90
2023-10-02T11:26:25.011Z,25.95
2023-10-02T11:27:25.018Z,25.95
2023-10-02T11:28:24.932Z,25.96
2023-10-02T11:29:25.006Z,25.92
2023-10-02T11:30:25.034Z,25.96
2023-10-02T11:31:24.926Z,26.04
2023-10-02T11:32:25.068Z,26.05
2023-10-02T11:33:24.870Z,26.00
2023-10-02T11:34:32.883Z,26.00
2023-10-02T11:35:24.963Z,26.01
2023-10-02T11:36:24.874Z,26.05
2023-10-02T11:37:24.858Z,26.12
2023-10-02T11:38:24.900Z,26.07
2023-10-02T11:39:24.808Z,26.10
2023-10-02T11:40:24.817Z,26.03
2023-10-02T11:41:24.944Z,25.93
2023-10-02T11:42:24.810Z,25.98
2023-10-02T11:43:24.764Z,25.98
2023-10-02T11:44:24.776Z,25.96
2023-10-02T11:45:24.754Z,25.96
2023-10-02T11:46:24.805Z,25.98
2023-10-02T11:47:24.796Z,26.04
2023-10-02T11:48:24.762Z,26.07
2023-10-02T11:49:24.728Z,26.07
2023-10-02T11:50:24.787Z,26.11
2023-10-02T11:51:24.696Z,26.16
2023-10-02T11:52:24.711Z,26.20
2023-10-02T11:53:24.742Z,26.26
2023-10-02T11:54:24.660Z,26.27
2023-10-02T11:55:24.672Z,26.34
2023-10-02T11:56:24.671Z,26.33
2023-10-02T11:57:24.656Z,26.33
2023-10-02T11:58:24.624Z,26.28
2023-10-02T11:59:24.632Z,26.30
2023-10-02T12:00:24.617Z,26.21
2023-10-02T12:01:24.616Z,26.10
2023-10-02T12:02:24.624Z,26.15
2023-10-02T12:03:24.678Z,26.15
2023-10-02T12:04:24.554Z,26.16
2023-10-02T12:05:24.654Z,26.10
2023-10-02T12:06:24.543Z,26.01
2023-10-02T12:07:24.519Z,25.96
2023-10-02T12:08:24.543Z,25.95
2023-10-02T12:09:24.492Z,25.88
2023-10-02T12:10:24.499Z,25.85
2023-10-02T12:11:24.566Z,25.81
2023-10-02T12:12:24.486Z,25.75
2023-10-02T12:13:24.459Z,25.63
2023-10-02T12:14:24.456Z,25.51
2023-10-02T12:15:24.437Z,25.49
2023-10-02T12:16:24.456Z,25.48
2023-10-02T12:17:24.455Z,25.51
2023-10-02T12:18:24.427Z,25.51
2023-10-02T12:19:24.411Z,25.52
2023-10-02T12:20:24.619Z,25.53
2023-10-02T12:21:24.393Z,25.55
2023-10-02T12:22:24.364Z,25.56
2023-10-02T12:23:24.381Z,25.59
2023-10-02T12:24:24.350Z,25.68
2023-10-02T12:25:24.364Z,25.70
2023-10-02T12:26:26.472Z,25.74
2023-10-02T12:27:24.307Z,25.82
2023-10-02T12:28:24.318Z,25.86
2023-10-02T12:29:24.347Z,25.90
2023-10-02T12:30:24.299Z,25.90
2023-10-02T12:31:24.326Z,25.90
2023-10-02T12:32:24.315Z,25.90
2023-10-02T12:33:24.284Z,25.83
2023-10-02T12:34:24.238Z,25.82
2023-10-02T12:35:24.318Z,25.81
2023-10-02T12:36:24.247Z,25.81
2023-10-02T12:37:24.230Z,25.73
2023-10-02T12:38:24.209Z,25.73
2023-10-02T12:39:24.199Z,25.68
2023-10-02T12:40:24.191Z,25.61
2023-10-02T12:41:24.233Z,25.61
2023-10-02T12:42:24.174Z,25.55
2023-10-02T12:43:24.151Z,25.52
2023-10-02T12:44:24.159Z,25.52
2023-10-02T12:45:24.145Z,25.53
2023-10-02T12:46:24.160Z,25.51
2023-10-02T12:47:24.234Z,25.53
2023-10-02T12:48:24.107Z,25.61
2023-10-02T12:49:24.105Z,25.74
2023-10-02T12:50:24.125Z,25.75
2023-10-02T12:51:24.109Z,25.77
2023-10-02T12:52:24.046Z,25.86